Orient Glider Airport

Jump to: basic info | weather | comments

Related pages: nearby airports | nearby navaids | notams | map

Basic information (top)

Codes: FAOI
Location: lon -26.039400, lat 27.595600, elev 5,102 ft / 1,555 m msl
Status: small_airport

Weather (top)

Current conditions for Lanseria Airport 19nm (35km) ENE (rec'd 2014/04/23 23:00Z):

FALA 232300Z AUTO 22008KT //// // 11/10 Q1020

Airport forecast for Lanseria Airport 19nm (35km) ENE (rec'd 2014/04/19 00:00Z):

TAF FALA 192200Z 2000/2024 VRB03KT CAVOK PROB30 
      TEMPO 2003/2006 5000 BR NSC 
      BECMG 2007/2009 33010KT SCT045 
     FM201800 VRB03KT CAVOK TX26/2013ZTN10/2004Z

Latest comments (top)

Runway Orientation and Airfield Frequency: Runway 36/18 (Main) Runway 11/29 Airfi ... [read]

More... (top)

See also NOTAMs and nearby airports and navaids, or visit the Orient Glider Airport page at the main OurAirports website..